createdAt,value
2022-10-31T00:02:44.396Z,24.54
2022-10-31T00:07:51.512Z,24.60
2022-10-31T00:12:59.144Z,24.63
2022-10-31T00:18:05.942Z,24.60
2022-10-31T00:23:13.133Z,24.59
2022-10-31T00:28:20.439Z,24.56
2022-10-31T00:33:27.547Z,24.53
2022-10-31T00:38:34.752Z,24.48
2022-10-31T00:43:41.991Z,24.47
2022-10-31T00:48:49.248Z,24.44
2022-10-31T00:53:56.476Z,24.45
2022-10-31T00:59:03.702Z,24.45
2022-10-31T01:04:10.992Z,24.47
2022-10-31T01:09:18.153Z,24.46
2022-10-31T01:14:25.379Z,24.46
2022-10-31T01:19:32.606Z,24.43
2022-10-31T01:24:39.804Z,24.41
2022-10-31T01:29:47.051Z,24.36
2022-10-31T01:34:54.271Z,24.36
2022-10-31T01:40:01.493Z,24.34
2022-10-31T01:45:08.709Z,24.38
2022-10-31T01:50:15.941Z,24.40
2022-10-31T01:55:25.226Z,24.38
2022-10-31T02:00:30.246Z,24.35
2022-10-31T02:05:37.475Z,24.33
2022-10-31T02:10:44.669Z,24.32
2022-10-31T02:15:51.859Z,24.33
2022-10-31T02:20:59.098Z,24.33
2022-10-31T02:26:06.306Z,24.35
2022-10-31T02:31:13.561Z,24.36
2022-10-31T02:36:20.848Z,24.32
2022-10-31T02:41:28.116Z,24.33
2022-10-31T02:46:35.312Z,24.30
2022-10-31T02:51:42.650Z,24.30
2022-10-31T02:56:50.105Z,24.32
2022-10-31T03:01:57.353Z,24.34
2022-10-31T03:07:04.541Z,24.33
2022-10-31T03:12:11.728Z,24.31
2022-10-31T03:17:18.993Z,24.32
2022-10-31T03:22:26.231Z,24.31
2022-10-31T03:27:34.175Z,24.29
2022-10-31T03:32:41.340Z,24.29
2022-10-31T03:37:48.554Z,24.32
2022-10-31T03:42:55.764Z,24.30
2022-10-31T03:48:03.203Z,24.30
2022-10-31T03:53:10.188Z,24.30
2022-10-31T03:58:17.413Z,24.30
2022-10-31T04:03:24.548Z,24.31
2022-10-31T04:08:31.820Z,24.33
2022-10-31T04:13:38.982Z,24.30
2022-10-31T04:18:46.185Z,24.28
2022-10-31T04:23:53.393Z,24.28
2022-10-31T04:29:00.596Z,24.28
2022-10-31T04:34:07.804Z,24.30
2022-10-31T04:39:15.031Z,24.27
2022-10-31T04:44:22.187Z,24.28
2022-10-31T04:49:29.411Z,24.26
2022-10-31T04:54:36.618Z,24.27
2022-10-31T04:59:43.767Z,24.28
2022-10-31T05:04:50.960Z,24.31
2022-10-31T05:09:58.168Z,24.32
2022-10-31T05:15:05.335Z,24.38
2022-10-31T05:20:12.505Z,24.35
2022-10-31T05:25:19.764Z,24.36
2022-10-31T05:30:26.943Z,24.34
2022-10-31T05:35:34.178Z,24.34
2022-10-31T05:40:41.377Z,24.34
2022-10-31T05:45:48.561Z,24.38
2022-10-31T05:50:55.707Z,24.36
2022-10-31T05:56:02.991Z,24.35
2022-10-31T06:01:10.297Z,24.34
2022-10-31T06:06:17.389Z,24.36
2022-10-31T06:11:24.627Z,24.36
2022-10-31T06:16:31.807Z,24.40
2022-10-31T06:21:39.067Z,24.40
2022-10-31T06:26:46.225Z,24.39
2022-10-31T06:31:53.370Z,24.38
2022-10-31T06:37:00.613Z,24.40
2022-10-31T06:42:07.856Z,24.42
2022-10-31T06:47:15.050Z,24.44
2022-10-31T06:52:22.200Z,24.43
2022-10-31T06:57:29.412Z,24.43
2022-10-31T07:02:36.531Z,24.44
2022-10-31T07:07:43.771Z,24.42
2022-10-31T07:12:50.941Z,24.46
2022-10-31T07:17:58.148Z,24.44
2022-10-31T07:23:05.862Z,24.44
2022-10-31T07:28:12.539Z,24.44
2022-10-31T07:33:19.763Z,24.49
2022-10-31T07:38:26.974Z,24.48
2022-10-31T07:43:34.254Z,24.53
2022-10-31T07:48:41.466Z,24.54
2022-10-31T07:53:48.656Z,24.54
2022-10-31T07:58:55.877Z,24.62
2022-10-31T08:04:03.030Z,24.69
2022-10-31T08:09:10.250Z,24.78
2022-10-31T08:14:17.735Z,24.87
2022-10-31T08:19:24.923Z,24.92
2022-10-31T08:24:32.165Z,24.98
2022-10-31T08:29:39.316Z,25.03
2022-10-31T08:34:46.532Z,25.10
2022-10-31T08:39:53.747Z,25.06
2022-10-31T08:45:01.008Z,25.03
2022-10-31T08:50:08.154Z,24.95
2022-10-31T08:55:15.376Z,24.97
2022-10-31T09:00:22.707Z,24.83
2022-10-31T09:05:29.927Z,24.76
2022-10-31T09:10:37.046Z,24.70
2022-10-31T09:15:44.318Z,24.61
2022-10-31T09:20:51.500Z,24.58
2022-10-31T09:25:58.714Z,24.56
2022-10-31T09:31:05.944Z,24.53
2022-10-31T09:36:13.109Z,24.55
2022-10-31T09:41:21.373Z,24.56
2022-10-31T09:46:28.633Z,24.53
2022-10-31T09:51:35.836Z,24.51
2022-10-31T09:56:43.079Z,24.62
2022-10-31T10:01:50.560Z,24.50
2022-10-31T10:06:58.989Z,24.32
2022-10-31T10:12:06.197Z,24.35
2022-10-31T10:17:13.452Z,24.36
2022-10-31T10:22:20.572Z,24.32
2022-10-31T10:27:27.849Z,24.44
2022-10-31T10:32:35.238Z,24.47
2022-10-31T10:37:42.398Z,24.47
2022-10-31T10:42:49.626Z,24.44
2022-10-31T10:47:57.183Z,24.34
2022-10-31T10:53:04.183Z,24.44
2022-10-31T10:58:11.391Z,24.38
2022-10-31T11:03:18.656Z,24.29
2022-10-31T11:08:27.546Z,24.20
2022-10-31T11:13:33.052Z,24.26
2022-10-31T11:18:40.366Z,24.26
2022-10-31T11:23:47.463Z,24.16
2022-10-31T11:28:54.670Z,24.18
2022-10-31T11:34:01.861Z,24.31
2022-10-31T11:39:09.067Z,24.38
2022-10-31T11:44:16.298Z,24.44
2022-10-31T11:49:23.512Z,24.34
2022-10-31T11:54:30.705Z,24.35
2022-10-31T11:59:37.902Z,24.40
2022-10-31T12:04:45.158Z,24.44
2022-10-31T12:09:52.304Z,24.44
2022-10-31T12:14:59.531Z,24.44
2022-10-31T12:20:06.737Z,24.45
2022-10-31T12:25:13.915Z,24.45
2022-10-31T12:30:21.116Z,24.46
2022-10-31T12:35:28.387Z,24.46
2022-10-31T12:40:35.547Z,24.50
2022-10-31T12:45:42.790Z,24.51
2022-10-31T12:50:50.197Z,24.54
2022-10-31T12:55:57.348Z,24.55
2022-10-31T13:01:04.760Z,24.57
2022-10-31T13:06:11.809Z,24.54
2022-10-31T13:11:19.024Z,24.57
2022-10-31T13:16:26.174Z,24.51
2022-10-31T13:21:33.414Z,24.56
2022-10-31T13:26:40.582Z,24.59
2022-10-31T13:31:47.831Z,24.59
2022-10-31T13:36:55.138Z,24.56
2022-10-31T13:42:02.331Z,24.57
2022-10-31T13:47:09.562Z,24.59
2022-10-31T13:52:16.777Z,24.61
2022-10-31T13:57:23.964Z,24.61
2022-10-31T14:02:31.188Z,24.62
2022-10-31T14:07:38.349Z,24.59
2022-10-31T14:12:45.495Z,24.61
2022-10-31T14:17:52.728Z,24.65
2022-10-31T14:28:07.159Z,24.63
2022-10-31T14:33:14.356Z,24.63
2022-10-31T14:38:21.575Z,24.62
2022-10-31T14:43:28.779Z,24.62
2022-10-31T14:48:35.993Z,24.63
2022-10-31T14:53:43.220Z,24.68
2022-10-31T14:58:50.403Z,24.70
2022-10-31T15:04:21.976Z,24.66
2022-10-31T15:09:05.502Z,24.69
2022-10-31T15:14:12.822Z,24.71
2022-10-31T15:19:19.938Z,24.70
2022-10-31T15:24:27.145Z,24.73
2022-10-31T15:29:34.325Z,24.71
2022-10-31T15:34:41.531Z,24.70
2022-10-31T15:39:48.793Z,24.70
2022-10-31T15:44:56.025Z,24.71
2022-10-31T15:50:03.249Z,24.72
2022-10-31T15:55:10.456Z,24.69
2022-10-31T16:00:17.668Z,24.71
2022-10-31T16:05:24.884Z,24.69
2022-10-31T16:10:32.093Z,24.69
2022-10-31T16:15:39.257Z,24.69
2022-10-31T16:20:46.473Z,24.72
2022-10-31T16:25:53.697Z,24.69
2022-10-31T16:31:00.875Z,24.69
2022-10-31T16:36:22.710Z,24.64
2022-10-31T16:41:15.312Z,24.69
2022-10-31T16:46:22.552Z,24.66
2022-10-31T16:51:29.754Z,24.66
2022-10-31T16:56:37.044Z,24.65
2022-10-31T17:01:44.307Z,24.64
2022-10-31T17:06:51.435Z,24.63
2022-10-31T17:11:58.650Z,24.65
2022-10-31T17:17:05.809Z,24.64
2022-10-31T17:22:13.020Z,24.63
2022-10-31T17:27:21.226Z,24.61
2022-10-31T17:32:28.577Z,24.57
2022-10-31T17:37:36.165Z,24.60
2022-10-31T17:42:44.624Z,24.64
2022-10-31T17:47:52.213Z,24.64
2022-10-31T17:53:00.208Z,24.69
2022-10-31T17:58:07.160Z,24.74
2022-10-31T18:03:14.553Z,24.74
2022-10-31T18:08:21.877Z,24.87
2022-10-31T18:13:29.491Z,24.90
2022-10-31T18:18:37.096Z,24.94
2022-10-31T18:23:44.529Z,24.94
2022-10-31T18:28:52.028Z,25.00
2022-10-31T18:33:59.717Z,25.04
2022-10-31T18:39:07.112Z,25.05
2022-10-31T18:44:14.452Z,25.13
2022-10-31T18:49:21.948Z,25.14
2022-10-31T18:54:29.252Z,25.15
2022-10-31T18:59:36.815Z,25.16
2022-10-31T19:04:44.173Z,25.19
2022-10-31T19:09:52.967Z,25.20
2022-10-31T19:15:00.662Z,25.23
2022-10-31T19:20:07.911Z,25.24
2022-10-31T19:25:15.170Z,25.31
2022-10-31T19:30:22.582Z,25.37
2022-10-31T19:35:29.955Z,25.39
2022-10-31T19:40:37.180Z,25.50
2022-10-31T19:45:44.706Z,25.53
2022-10-31T19:50:57.646Z,25.54
2022-10-31T19:56:00.017Z,25.54
2022-10-31T20:01:08.336Z,25.58
2022-10-31T20:06:15.653Z,25.59
2022-10-31T20:11:23.875Z,25.60
2022-10-31T20:16:31.315Z,25.62
2022-10-31T20:21:38.662Z,25.61
2022-10-31T20:26:45.935Z,25.60
2022-10-31T20:31:53.442Z,25.67
2022-10-31T20:37:00.790Z,25.67
2022-10-31T20:42:08.011Z,25.68
2022-10-31T20:47:15.463Z,25.68
2022-10-31T20:52:23.058Z,25.47
2022-10-31T20:57:30.371Z,25.44
2022-10-31T21:02:37.671Z,25.57
2022-10-31T21:07:44.915Z,25.60
2022-10-31T21:12:52.040Z,25.61
2022-10-31T21:17:59.415Z,25.68
2022-10-31T21:23:06.612Z,25.69
2022-10-31T21:28:13.872Z,25.72
2022-10-31T21:33:21.167Z,25.68
2022-10-31T21:38:28.322Z,25.72
2022-10-31T21:43:35.517Z,25.77
2022-10-31T21:48:42.722Z,25.61
2022-10-31T21:53:49.887Z,25.52
2022-10-31T21:58:57.130Z,25.62
2022-10-31T22:04:04.415Z,25.69
2022-10-31T22:09:11.595Z,25.69
2022-10-31T22:14:18.789Z,25.69
2022-10-31T22:19:26.090Z,25.67
2022-10-31T22:24:33.281Z,25.64
2022-10-31T22:29:40.498Z,25.63
2022-10-31T22:34:47.758Z,25.62
2022-10-31T22:39:55.299Z,25.66
2022-10-31T22:45:02.544Z,25.66
2022-10-31T22:50:09.818Z,25.64
2022-10-31T22:55:17.001Z,25.67
2022-10-31T23:00:24.214Z,25.68
2022-10-31T23:05:31.463Z,25.79
2022-10-31T23:10:38.634Z,25.82
2022-10-31T23:15:45.815Z,25.88
2022-10-31T23:20:53.050Z,25.94
2022-10-31T23:26:00.237Z,25.95
2022-10-31T23:31:07.433Z,25.95
2022-10-31T23:36:14.708Z,25.91
2022-10-31T23:41:21.859Z,25.86
2022-10-31T23:46:29.067Z,25.86
2022-10-31T23:51:36.275Z,25.79
2022-10-31T23:56:43.475Z,25.72
